nws-alerts: Checking more than four warning/county codes can delay the loading of your pages. You should use a cron job to get the data.
EllijayWeather Station Historical Data
Daily Summary for January 23, 2019 Units:  Metric    English   Both
Daily Weekly Monthly Yearly Custom
  High: Low: Average:
Temperature: 11.1 °C 3.5 °C 7.9 °C
Dew Point: 10.1 °C -6.3 °C 5.1 °C
Humidity: 98% 48% 83%
Wind Speed: 14.3km/h 0km/h 1km/h
Wind Gust: 19.3km/h - -
Wind- - SE
Pressure: 1030.7 hPa 1007.3 hPa -
Precipitation: 34.29 mm    
Historical Graphs
 
 
Tabular Data for January 23, 2019
Time Temperature Dew Point Pressure Wind Wind Speed Wind Gust Humidity Rainfall Rate (Hourly) solar
00:04 3.7 °C -6.3 °C 1030.7 hPa Calm   3.2 km/h 48% 0 mm meteobridge W/m2
00:09 3.8 °C -6.2 °C 1030.7 hPa Calm   9.7 km/h 48% 0 mm meteobridge W/m2
00:14 3.8 °C -5.9 °C 1030.7 hPa Calm   3.2 km/h 49% 0 mm meteobridge W/m2
00:19 3.8 °C -5.9 °C 1030.4 hPa Calm   1.6 km/h 49% 0 mm meteobridge W/m2
00:24 3.8 °C -5.7 °C 1030.4 hPa Calm   8 km/h 50% 0 mm meteobridge W/m2
00:29 3.8 °C -5.7 °C 1030.4 hPa ESE 3.2 km/h 9.7 km/h 50% 0 mm meteobridge W/m2
00:34 3.8 °C -5.7 °C 1030.4 hPa Calm   14.5 km/h 50% 0 mm meteobridge W/m2
00:39 3.8 °C -5.7 °C 1030.4 hPa East 6.4 km/h 6.4 km/h 50% 0 mm meteobridge W/m2
00:44 3.7 °C -5.8 °C 1030.4 hPa Calm   1.6 km/h 50% 0 mm meteobridge W/m2
00:49 3.7 °C -5.5 °C 1030 hPa SE 3.2 km/h 11.3 km/h 51% 0 mm meteobridge W/m2
00:54 3.7 °C -5.5 °C 1030 hPa Calm   11.3 km/h 51% 0 mm meteobridge W/m2
00:59 3.7 °C -5 °C 1030 hPa Calm   1.6 km/h 53% 0 mm meteobridge W/m2
01:04 3.7 °C -5.2 °C 1030.4 hPa Calm   8 km/h 52% 0 mm meteobridge W/m2
01:09 3.6 °C -5.3 °C 1030 hPa Calm   14.5 km/h 52% 0 mm meteobridge W/m2
01:14 3.7 °C -5 °C 1030 hPa Calm   11.3 km/h 53% 0 mm meteobridge W/m2
01:19 3.6 °C -4.8 °C 1030 hPa SE 1.4 km/h 6.4 km/h 54% 0 mm meteobridge W/m2
01:24 3.6 °C -5.1 °C 1029.7 hPa Calm   11.3 km/h 53% 0 mm meteobridge W/m2
01:29 3.6 °C -5.1 °C 1029.7 hPa ESE 1.4 km/h 9.7 km/h 53% 0 mm meteobridge W/m2
01:34 3.5 °C -5.2 °C 1030 hPa Calm   8 km/h 53% 0 mm meteobridge W/m2
01:39 3.5 °C -5.2 °C 1029.7 hPa SE 13 km/h 12.9 km/h 53% 0 mm meteobridge W/m2
01:44 3.6 °C -4.6 °C 1029.3 hPa Calm   9.7 km/h 55% 0 mm meteobridge W/m2
01:49 3.6 °C -4.6 °C 1029.3 hPa Calm   9.7 km/h 55% 0 mm meteobridge W/m2
01:54 3.6 °C -4.1 °C 1029.3 hPa Calm   9.7 km/h 57% 0 mm meteobridge W/m2
01:59 3.7 °C -4 °C 1029 hPa ESE 9.7 km/h 9.7 km/h 57% 0 mm meteobridge W/m2
02:04 3.7 °C -3.8 °C 1029 hPa East 1.4 km/h 11.3 km/h 58% 0 mm meteobridge W/m2
02:09 3.7 °C -4 °C 1029 hPa Calm   12.9 km/h 57% 0 mm meteobridge W/m2
02:14 3.8 °C -3.7 °C 1029 hPa SE 1.4 km/h 6.4 km/h 58% 0 mm meteobridge W/m2
02:19 3.8 °C -3.5 °C 1029 hPa SSE 1.4 km/h 17.7 km/h 59% 0 mm meteobridge W/m2
02:24 4 °C -2.8 °C 1028.7 hPa Calm   17.7 km/h 61% 0 mm meteobridge W/m2
02:29 4.1 °C -2.5 °C 1028.7 hPa ESE 1.4 km/h 6.4 km/h 62% 0 mm meteobridge W/m2
02:34 4.2 °C -1.8 °C 1028.7 hPa Calm   9.7 km/h 65% 0 mm meteobridge W/m2
02:39 4.3 °C -1.7 °C 1028.7 hPa Calm   1.6 km/h 65% 0 mm meteobridge W/m2
02:44 4.4 °C -1.4 °C 1028.7 hPa Calm   6.4 km/h 66% 0 mm meteobridge W/m2
02:49 4.4 °C -1.2 °C 1028.3 hPa Calm   1.6 km/h 67% 0 mm meteobridge W/m2
02:54 4.5 °C -0.9 °C 1028.3 hPa SSE 1.4 km/h 8 km/h 68% 0 mm meteobridge W/m2
02:59 4.7 °C -0.5 °C 1028.3 hPa East 3.2 km/h 9.7 km/h 69% 0 mm meteobridge W/m2
03:04 4.7 °C -0.5 °C 1028.3 hPa Calm   12.9 km/h 69% 0 mm meteobridge W/m2
03:09 4.8 °C -0.2 °C 1028 hPa Calm   6.4 km/h 70% 0 mm meteobridge W/m2
03:14 4.9 °C -0.1 °C 1028 hPa ESE 3.2 km/h 12.9 km/h 70% 0 mm meteobridge W/m2
03:19 5 °C 0 °C 1028 hPa Calm   6.4 km/h 70% 0 mm meteobridge W/m2
03:24 5.1 °C 0.1 °C 1028 hPa Calm   8 km/h 70% 0 mm meteobridge W/m2
03:29 5.2 °C 0.2 °C 1028 hPa Calm   6.4 km/h 70% 0 mm meteobridge W/m2
03:34 5.2 °C 0.4 °C 1028 hPa Calm   8 km/h 71% 0 mm meteobridge W/m2
03:39 5.2 °C 0.4 °C 1028 hPa SE 1.4 km/h 8 km/h 71% 0 mm meteobridge W/m2
03:44 5.2 °C 0.6 °C 1027.7 hPa SE 3.2 km/h 11.3 km/h 72% 0 mm meteobridge W/m2
03:49 5.3 °C 0.7 °C 1027.3 hPa ESE 3.2 km/h 19.3 km/h 72% 0 mm meteobridge W/m2
03:54 5.4 °C 0.8 °C 1027.3 hPa SE 7.9 km/h 9.7 km/h 72% 0 mm meteobridge W/m2
03:59 5.4 °C 0.8 °C 1027.3 hPa SE 1.4 km/h 9.7 km/h 72% 0 mm meteobridge W/m2
04:04 5.4 °C 0.8 °C 1027.3 hPa Calm   3.2 km/h 72% 0 mm meteobridge W/m2
04:09 5.4 °C 0.9 °C 1027.3 hPa Calm   3.2 km/h 73% 0 mm meteobridge W/m2
04:14 5.4 °C 0.9 °C 1027 hPa Calm   6.4 km/h 73% 0 mm meteobridge W/m2
04:19 5.4 °C 0.9 °C 1027.3 hPa Calm   8 km/h 73% 0 mm meteobridge W/m2
04:24 5.4 °C 1.1 °C 1027 hPa Calm   6.4 km/h 74% 0 mm meteobridge W/m2
04:29 5.4 °C 1.1 °C 1027 hPa Calm   6.4 km/h 74% 0 mm meteobridge W/m2
04:34 5.4 °C 1.1 °C 1026.6 hPa ESE 1.4 km/h 3.2 km/h 74% 0 mm meteobridge W/m2
04:39 5.5 °C 1.4 °C 1026.6 hPa SE 1.4 km/h 1.6 km/h 75% 0 mm meteobridge W/m2
04:44 5.5 °C 1.4 °C 1026.6 hPa SE 1.4 km/h 8 km/h 75% 0 mm meteobridge W/m2
04:49 5.5 °C 1.2 °C 1026.6 hPa Calm   1.6 km/h 74% 0 mm meteobridge W/m2
04:54 5.5 °C 1.4 °C 1026.6 hPa Calm   1.6 km/h 75% 0 mm meteobridge W/m2
04:59 5.4 °C 1.3 °C 1026.3 hPa ESE 3.2 km/h 6.4 km/h 75% 0 mm meteobridge W/m2
05:04 5.5 °C 1.6 °C 1026 hPa SE 3.2 km/h 6.4 km/h 76% 0 mm meteobridge W/m2
05:09 5.6 °C 1.7 °C 1026 hPa SE 1.4 km/h 6.4 km/h 76% 0 mm meteobridge W/m2
05:14 5.7 °C 2 °C 1026 hPa Calm   8 km/h 77% 0 mm meteobridge W/m2
05:19 5.7 °C 1.8 °C 1026 hPa Calm   6.4 km/h 76% 0 mm meteobridge W/m2
05:24 5.6 °C 1.7 °C 1025.6 hPa Calm   6.4 km/h 76% 0 mm meteobridge W/m2
05:29 5.5 °C 1.6 °C 1025.3 hPa Calm     76% 0 mm meteobridge W/m2
05:34 5.4 °C 1.7 °C 1025.3 hPa Calm   8 km/h 77% 0 mm meteobridge W/m2
05:39 5.6 °C 2.2 °C 1025.3 hPa SE 1.4 km/h 3.2 km/h 79% 0 mm meteobridge W/m2
05:44 5.7 °C 2.2 °C 1025.3 hPa Calm   6.4 km/h 78% 0 mm meteobridge W/m2
05:49 5.7 °C 2.2 °C 1025.6 hPa Calm     78% 0 mm meteobridge W/m2
05:54 5.8 °C 2.3 °C 1025.6 hPa Calm   6.4 km/h 78% 0 mm meteobridge W/m2
05:59 5.8 °C 2.4 °C 1025.6 hPa SE 3.2 km/h 9.7 km/h 79% 0 mm meteobridge W/m2
06:04 5.8 °C 2.4 °C 1025.6 hPa SE 6.4 km/h 6.4 km/h 79% 0 mm meteobridge W/m2
06:09 5.8 °C 2.4 °C 1025.6 hPa Calm     79% 0 mm meteobridge W/m2
06:14 5.7 °C 2.3 °C 1025.3 hPa ESE 7.9 km/h 8 km/h 79% 0 mm meteobridge W/m2
06:18 5.8 °C 2.6 °C 1024.9 hPa Calm   1.6 km/h 80% 0 mm meteobridge W/m2
06:24 5.7 °C 2.5 °C 1024.9 hPa Calm   3.2 km/h 80% 0 mm meteobridge W/m2
06:29 5.9 °C 2.9 °C 1024.9 hPa Calm   6.4 km/h 81% 0 mm meteobridge W/m2
06:34 5.9 °C 2.7 °C 1024.9 hPa SE 3.2 km/h 3.2 km/h 80% 0 mm meteobridge W/m2
06:39 5.9 °C 2.9 °C 1024.9 hPa SE 6.4 km/h 11.3 km/h 81% 0 mm meteobridge W/m2
06:44 5.9 °C 2.9 °C 1024.9 hPa Calm   6.4 km/h 81% 0 mm meteobridge W/m2
06:49 5.9 °C 2.9 °C 1024.9 hPa Calm   3.2 km/h 81% 0 mm meteobridge W/m2
06:54 5.8 °C 3 °C 1024.6 hPa ESE 3.2 km/h 3.2 km/h 82% 0 mm meteobridge W/m2
06:59 6 °C 3.2 °C 1024.6 hPa Calm   8 km/h 82% 0 mm meteobridge W/m2
07:04 6.1 °C 3.4 °C 1024.6 hPa ESE 3.2 km/h 8 km/h 83% 0 mm meteobridge W/m2
07:09 6.3 °C 3.6 °C 1024.3 hPa SE 1.4 km/h 9.7 km/h 83% 0 mm meteobridge W/m2
07:14 6.3 °C 3.6 °C 1024.3 hPa Calm     83% 0 mm meteobridge W/m2
07:19 6.3 °C 3.6 °C 1023.9 hPa Calm   3.2 km/h 83% 0 mm meteobridge W/m2
07:24 6.3 °C 3.8 °C 1024.3 hPa SSE 3.2 km/h 6.4 km/h 84% 0 mm meteobridge W/m2
07:29 6.3 °C 3.8 °C 1023.9 hPa Calm   9.7 km/h 84% 0 mm meteobridge W/m2
07:34 6.3 °C 3.8 °C 1023.9 hPa Calm   6.4 km/h 84% 0 mm meteobridge W/m2
07:39 6.2 °C 3.7 °C 1023.6 hPa Calm   9.7 km/h 84% 0 mm meteobridge W/m2
07:44 6.2 °C 3.9 °C 1023.6 hPa Calm   6.4 km/h 85% 0 mm meteobridge W/m2
07:49 6.2 °C 3.9 °C 1023.9 hPa Calm   6.4 km/h 85% 0 mm meteobridge W/m2
07:54 6.1 °C 3.8 °C 1023.9 hPa ESE 3.2 km/h 6.4 km/h 85% 0 mm meteobridge W/m2
07:59 6.1 °C 3.8 °C 1023.9 hPa Calm   1.6 km/h 85% 0 mm meteobridge W/m2
08:04 6.1 °C 3.9 °C 1023.9 hPa Calm     86% 0 mm meteobridge W/m2
08:09 6.1 °C 3.9 °C 1023.9 hPa Calm   12.9 km/h 86% 0 mm meteobridge W/m2
08:14 6.2 °C 4 °C 1024.3 hPa Calm   3.2 km/h 86% 0 mm meteobridge W/m2
08:19 6.3 °C 4.1 °C 1024.3 hPa Calm   8 km/h 86% 0 mm meteobridge W/m2
08:24 6.4 °C 4.2 °C 1023.6 hPa Calm   6.4 km/h 86% 0 mm meteobridge W/m2
08:29 6.6 °C 4.4 °C 1023.2 hPa Calm   9.7 km/h 86% 0 mm meteobridge W/m2
08:34 6.7 °C 4.5 °C 1023.6 hPa Calm   12.9 km/h 86% 0 mm meteobridge W/m2
08:39 6.9 °C 4.6 °C 1023.6 hPa SSE 7.9 km/h 9.7 km/h 85% 0 mm meteobridge W/m2
08:44 6.9 °C 4.6 °C 1023.6 hPa ESE 3.2 km/h 11.3 km/h 85% 0 mm meteobridge W/m2
08:49 6.9 °C 4.6 °C 1023.6 hPa SE 6.4 km/h 19.3 km/h 85% 0 mm meteobridge W/m2
08:54 6.9 °C 4.6 °C 1023.6 hPa ESE 1.4 km/h 3.2 km/h 85% 0 mm meteobridge W/m2
08:59 6.9 °C 4.6 °C 1023.6 hPa SE 1.4 km/h 9.7 km/h 85% 0 mm meteobridge W/m2
09:04 6.9 °C 4.7 °C 1023.9 hPa Calm   9.7 km/h 86% 0 mm meteobridge W/m2
09:09 7 °C 4.8 °C 1023.9 hPa Calm     86% 0 mm meteobridge W/m2
09:14 7.1 °C 4.9 °C 1023.9 hPa Calm   3.2 km/h 86% 0 mm meteobridge W/m2
09:19 7.2 °C 5 °C 1023.6 hPa Calm   8 km/h 86% 0 mm meteobridge W/m2
09:24 7.2 °C 5 °C 1023.6 hPa SE 7.9 km/h 8 km/h 86% 0 mm meteobridge W/m2
09:29 7.3 °C 5.3 °C 1023.6 hPa Calm   1.6 km/h 87% 0 mm meteobridge W/m2
09:34 7.3 °C 5.1 °C 1023.6 hPa Calm     86% 0 mm meteobridge W/m2
09:39 7.3 °C 5.1 °C 1023.6 hPa Calm   8 km/h 86% 0 mm meteobridge W/m2
09:44 7.3 °C 5.1 °C 1023.6 hPa Calm   1.6 km/h 86% 0 mm meteobridge W/m2
09:49 7.3 °C 5.3 °C 1023.6 hPa Calm   6.4 km/h 87% 0 mm meteobridge W/m2
09:54 7.4 °C 5.4 °C 1023.6 hPa Calm   1.6 km/h 87% 0 mm meteobridge W/m2
09:59 7.4 °C 5.4 °C 1023.6 hPa Calm     87% 0 mm meteobridge W/m2
10:04 7.6 °C 5.6 °C 1022.9 hPa Calm   3.2 km/h 87% 0 mm meteobridge W/m2
10:09 7.7 °C 5.7 °C 1023.2 hPa ESE 1.4 km/h 3.2 km/h 87% 0 mm meteobridge W/m2
10:14 7.8 °C 5.8 °C 1022.9 hPa Calm   3.2 km/h 87% 0 mm meteobridge W/m2
10:19 7.8 °C 5.8 °C 1022.9 hPa Calm   6.4 km/h 87% 0 mm meteobridge W/m2
10:24 7.8 °C 5.6 °C 1022.2 hPa Calm   6.4 km/h 86% 0 mm meteobridge W/m2
10:29 7.8 °C 5.4 °C 1022.2 hPa Calm   12.9 km/h 85% 0 mm meteobridge W/m2
10:34 7.7 °C 5.5 °C 1022.6 hPa ESE 6.4 km/h 9.7 km/h 86% 0 mm meteobridge W/m2
10:39 7.8 °C 5.6 °C 1022.6 hPa Calm   1.6 km/h 86% 0 mm meteobridge W/m2
10:44 7.8 °C 5.6 °C 1022.6 hPa SE 6.4 km/h 6.4 km/h 86% 0 mm meteobridge W/m2
10:49 7.8 °C 5.6 °C 1022.9 hPa Calm   1.6 km/h 86% 0 mm meteobridge W/m2
10:54 7.9 °C 5.7 °C 1022.6 hPa Calm     86% 0 mm meteobridge W/m2
10:59 7.9 °C 5.7 °C 1022.6 hPa Calm   3.2 km/h 86% 0 mm meteobridge W/m2
11:04 7.8 °C 5.6 °C 1022.6 hPa Calm   1.6 km/h 86% 0 mm meteobridge W/m2
11:09 7.8 °C 5.6 °C 1022.6 hPa SE 1.4 km/h 6.4 km/h 86% 0 mm meteobridge W/m2
11:14 7.8 °C 5.6 °C 1022.2 hPa SE 9.7 km/h 11.3 km/h 86% 0 mm meteobridge W/m2
11:19 7.8 °C 5.8 °C 1021.9 hPa Calm   6.4 km/h 87% 0 mm meteobridge W/m2
11:24 7.9 °C 5.9 °C 1021.9 hPa Calm   8 km/h 87% 0 mm meteobridge W/m2
11:29 7.9 °C 5.9 °C 1021.9 hPa ESE 1.4 km/h 6.4 km/h 87% 0 mm meteobridge W/m2
11:34 8.1 °C 6.2 °C 1021.6 hPa ESE 6.4 km/h 6.4 km/h 88% 0 mm meteobridge W/m2
11:39 8.3 °C 6.3 °C 1021.6 hPa Calm   6.4 km/h 87% 0 mm meteobridge W/m2
11:44 8.4 °C 6.4 °C 1020.9 hPa Calm   6.4 km/h 87% 0 mm meteobridge W/m2
11:49 8.5 °C 6.5 °C 1020.5 hPa East 1.4 km/h 9.7 km/h 87% 0 mm meteobridge W/m2
11:54 8.6 °C 6.6 °C 1020.5 hPa Calm   6.4 km/h 87% 0 mm meteobridge W/m2
11:59 8.7 °C 6.7 °C 1020.2 hPa SSE 1.4 km/h 11.3 km/h 87% 0 mm meteobridge W/m2
12:04 8.9 °C 6.5 °C 1020.2 hPa Calm   6.4 km/h 85% 0 mm meteobridge W/m2
12:09 8.8 °C 6.4 °C 1020.2 hPa Calm   3.2 km/h 85% 0 mm meteobridge W/m2
12:14 8.6 °C 6.4 °C 1020.2 hPa Calm     86% 0 mm meteobridge W/m2
12:19 8.4 °C 6.4 °C 1020.2 hPa SE 1.4 km/h 1.6 km/h 87% 0 mm meteobridge W/m2
12:24 8.4 °C 6.5 °C 1020.5 hPa Calm   6.4 km/h 88% 0 mm meteobridge W/m2
12:29 8.4 °C 6.5 °C 1019.9 hPa Calm   1.6 km/h 88% 0 mm meteobridge W/m2
12:34 8.4 °C 6.5 °C 1019.9 hPa Calm   1.6 km/h 88% 0 mm meteobridge W/m2
12:39 8.4 °C 6.5 °C 1019.5 hPa Calm   6.4 km/h 88% 0 mm meteobridge W/m2
12:44 8.4 °C 6.7 °C 1019.2 hPa Calm     89% 0 mm meteobridge W/m2
12:49 8.6 °C 6.9 °C 1019.2 hPa Calm   3.2 km/h 89% 0 mm meteobridge W/m2
12:54 8.8 °C 6.9 °C 1018.8 hPa ESE 1.4 km/h 8 km/h 88% 0 mm meteobridge W/m2
12:59 8.9 °C 7 °C 1018.8 hPa Calm   3.2 km/h 88% 0 mm meteobridge W/m2
13:04 8.9 °C 7 °C 1018.5 hPa Calm   6.4 km/h 88% 0 mm meteobridge W/m2
13:09 9.2 °C 7.3 °C 1017.8 hPa SE 3.2 km/h 3.2 km/h 88% 0 mm meteobridge W/m2
13:14 9.6 °C 7.5 °C 1017.8 hPa ESE 3.2 km/h 3.2 km/h 87% 0 mm meteobridge W/m2
13:19 10 °C 7.8 °C 1017.8 hPa Calm   3.2 km/h 86% 0 mm meteobridge W/m2
13:24 10.1 °C 7.7 °C 1017.5 hPa Calm     85% 0 mm meteobridge W/m2
13:29 10.2 °C 7.8 °C 1017.2 hPa SE 6.4 km/h 12.9 km/h 85% 0 mm meteobridge W/m2
13:34 10.6 °C 8.2 °C 1017.2 hPa ESE 1.4 km/h 12.9 km/h 85% 0 mm meteobridge W/m2
13:39 10.8 °C 8.2 °C 1016.8 hPa Calm   8 km/h 84% 0 mm meteobridge W/m2
13:44 11 °C 8.2 °C 1016.8 hPa Calm   6.4 km/h 83% 0 mm meteobridge W/m2
13:49 11.1 °C 8.3 °C 1016.8 hPa ESE 6.4 km/h 8 km/h 83% 0 mm meteobridge W/m2
13:54 11.1 °C 8.3 °C 1016.8 hPa SSE 9.7 km/h 9.7 km/h 83% 0 mm meteobridge W/m2
13:59 11.1 °C 8.3 °C 1016.5 hPa Calm   3.2 km/h 83% 0 mm meteobridge W/m2
14:04 11 °C 8.2 °C 1016.1 hPa Calm   8 km/h 83% 0 mm meteobridge W/m2
14:09 10.9 °C 8.3 °C 1016.1 hPa SE 1.4 km/h 1.6 km/h 84% 0 mm meteobridge W/m2
14:14 10.9 °C 8.5 °C 1016.1 hPa East 6.4 km/h 6.4 km/h 85% 0 mm meteobridge W/m2
14:19 10.8 °C 8.6 °C 1015.8 hPa East 1.4 km/h 3.2 km/h 86% 0 mm meteobridge W/m2
14:24 10.7 °C 8.6 °C 1015.8 hPa SE 3.2 km/h 3.2 km/h 87% 0 mm meteobridge W/m2
14:29 10.8 °C 8.6 °C 1015.5 hPa ESE 6.4 km/h 9.7 km/h 86% 0 mm meteobridge W/m2
14:34 10.8 °C 8.4 °C 1015.5 hPa SE 14.3 km/h 14.5 km/h 85% 0 mm meteobridge W/m2
14:39 10.7 °C 8.3 °C 1015.1 hPa Calm   1.6 km/h 85% 0 mm meteobridge W/m2
14:44 10.4 °C 8.2 °C 1015.1 hPa Calm     86% 0 mm meteobridge W/m2
14:49 10.2 °C 8 °C 1015.1 hPa Calm     86% 0 mm meteobridge W/m2
14:54 10.1 °C 8 °C 1014.8 hPa ENE 1.4 km/h 8 km/h 87% 0 mm meteobridge W/m2
14:59 10 °C 7.9 °C 1014.8 hPa Calm   11.3 km/h 87% 0 mm meteobridge W/m2
15:04 10 °C 7.9 °C 1014.4 hPa SE 7.9 km/h 8 km/h 87% 0 mm meteobridge W/m2
15:09 10.1 °C 8 °C 1014.4 hPa ESE 3.2 km/h 9.7 km/h 87% 0 mm meteobridge W/m2
15:14 10.2 °C 8.1 °C 1014.4 hPa Calm   9.7 km/h 87% 0 mm meteobridge W/m2
15:19 10.2 °C 8.1 °C 1014.1 hPa Calm   8 km/h 87% 0 mm meteobridge W/m2
15:24 10.2 °C 8 °C 1014.1 hPa SE 3.2 km/h 9.7 km/h 86% 0 mm meteobridge W/m2
15:29 10.3 °C 8.1 °C 1013.8 hPa Calm     86% 0 mm meteobridge W/m2
15:34 10.3 °C 8.1 °C 1013.8 hPa ESE 1.4 km/h 3.2 km/h 86% 0 mm meteobridge W/m2
15:39 10.3 °C 8.1 °C 1013.8 hPa Calm     86% 0 mm meteobridge W/m2
15:44 10.3 °C 8.1 °C 1013.4 hPa Calm     86% 0 mm meteobridge W/m2
15:49 10.2 °C 8 °C 1013.4 hPa Calm     86% 0 mm meteobridge W/m2
15:54 10.1 °C 7.9 °C 1013.1 hPa Calm     86% 0 mm meteobridge W/m2
15:59 10.1 °C 8 °C 1013.4 hPa Calm     87% 0 mm meteobridge W/m2
16:04 10 °C 7.9 °C 1013.1 hPa Calm     87% 0 mm meteobridge W/m2
16:09 10 °C 7.9 °C 1013.1 hPa Calm     87% 0 mm meteobridge W/m2
16:14 10.1 °C 8 °C 1012.8 hPa Calm     87% 0 mm meteobridge W/m2
16:19 10.2 °C 8 °C 1012.4 hPa Calm     86% 0 mm meteobridge W/m2
16:24 10.3 °C 8.1 °C 1012.4 hPa Calm     86% 0 mm meteobridge W/m2
16:29 10.4 °C 8.2 °C 1012.4 hPa Calm     86% 0 mm meteobridge W/m2
16:34 10.4 °C 8 °C 1012.4 hPa Calm     85% 0 mm meteobridge W/m2
16:39 10.4 °C 8 °C 1012.4 hPa Calm     85% 0 mm meteobridge W/m2
16:44 10.4 °C 8 °C 1012.4 hPa Calm     85% 0 mm meteobridge W/m2
16:49 10.4 °C 8 °C 1012.4 hPa Calm     85% 0 mm meteobridge W/m2
16:54 10.5 °C 8.1 °C 1012.1 hPa Calm     85% 0 mm meteobridge W/m2
16:59 10.5 °C 8.1 °C 1012.1 hPa Calm     85% 0 mm meteobridge W/m2
17:04 10.4 °C 8 °C 1011.7 hPa Calm     85% 0 mm meteobridge W/m2
17:09 10.4 °C 8.2 °C 1011.7 hPa Calm     86% 0 mm meteobridge W/m2
17:14 10.3 °C 8.2 °C 1011.7 hPa Calm     87% 0 mm meteobridge W/m2
17:19 10.1 °C 8.4 °C 1011.4 hPa Calm     89% 0 mm meteobridge W/m2
17:24 9.9 °C 8.3 °C 1010.7 hPa Calm     90% 0 mm meteobridge W/m2
17:29 9.8 °C 8.2 °C 1010.7 hPa Calm     90% 0 mm meteobridge W/m2
17:34 9.8 °C 8.4 °C 1010.4 hPa Calm     91% 0 mm meteobridge W/m2
17:39 9.8 °C 8.4 °C 1010.7 hPa Calm     91% 0 mm meteobridge W/m2
17:44 9.9 °C 8.5 °C 1010.7 hPa Calm     91% 0 mm meteobridge W/m2
17:49 10.1 °C 8.7 °C 1010.4 hPa Calm     91% 0 mm meteobridge W/m2
17:54 10.2 °C 8.6 °C 1010.4 hPa Calm     90% 0 mm meteobridge W/m2
17:59 10.3 °C 8.7 °C 1010 hPa Calm     90% 0 mm meteobridge W/m2
18:04 10.4 °C 8.7 °C 1010 hPa Calm     89% 0 mm meteobridge W/m2
18:09 10.6 °C 8.9 °C 1010 hPa Calm     89% 0 mm meteobridge W/m2
18:14 10.6 °C 8.9 °C 1010 hPa Calm     89% 0.25 mm meteobridge W/m2
18:19 10.4 °C 8.8 °C 1010 hPa Calm     90% 0.25 mm meteobridge W/m2
18:24 10.3 °C 9.1 °C 1010 hPa Calm     92% 0.51 mm meteobridge W/m2
18:29 10.2 °C 9.1 °C 1010 hPa Calm     93% 0.76 mm meteobridge W/m2
18:34 10.1 °C 9 °C 1009.7 hPa Calm     93% 1.27 mm meteobridge W/m2
18:39 10.1 °C 9.2 °C 1009.7 hPa Calm     94% 1.78 mm meteobridge W/m2
18:44 10 °C 9.1 °C 1009.7 hPa Calm     94% 2.03 mm meteobridge W/m2
18:49 10 °C 9.1 °C 1009.4 hPa Calm     94% 2.29 mm meteobridge W/m2
18:54 10 °C 9.1 °C 1009 hPa Calm     94% 2.54 mm meteobridge W/m2
18:59 10.1 °C 9.2 °C 1009 hPa Calm     94% 2.79 mm meteobridge W/m2
19:04 10.1 °C 9.2 °C 1009 hPa Calm     94% 3.05 mm meteobridge W/m2
19:09 10.1 °C 9.2 °C 1009.4 hPa Calm     94% 3.56 mm meteobridge W/m2
19:14 10.1 °C 9.3 °C 1009.7 hPa Calm     95% 3.56 mm meteobridge W/m2
19:19 10.1 °C 9.3 °C 1010 hPa Calm     95% 4.06 mm meteobridge W/m2
19:24 9.9 °C 9.3 °C 1010.7 hPa Calm     96% 4.32 mm meteobridge W/m2
19:29 10 °C 9.4 °C 1011.4 hPa Calm     96% 5.08 mm meteobridge W/m2
19:34 10 °C 9.4 °C 1011.7 hPa Calm     96% 7.37 mm meteobridge W/m2
19:39 10.2 °C 9.7 °C 1011.7 hPa Calm     97% 7.87 mm meteobridge W/m2
19:44 10.3 °C 9.8 °C 1011.7 hPa Calm     97% 8.64 mm meteobridge W/m2
19:49 10.4 °C 9.9 °C 1011.4 hPa Calm     97% 9.4 mm meteobridge W/m2
19:54 10.6 °C 10.1 °C 1011.1 hPa Calm     97% 9.91 mm meteobridge W/m2
19:59 10.6 °C 10.1 °C 1010.7 hPa Calm     97% 10.41 mm meteobridge W/m2
20:04 10.6 °C 10.1 °C 1010.7 hPa Calm     97% 10.41 mm meteobridge W/m2
20:09 10.6 °C 10.1 °C 1010.4 hPa Calm     97% 10.67 mm meteobridge W/m2
20:14 10.5 °C 10 °C 1010.4 hPa Calm     97% 10.67 mm meteobridge W/m2
20:19 10.5 °C 10 °C 1010 hPa Calm     97% 10.41 mm meteobridge W/m2
20:24 10.4 °C 9.9 °C 1010.4 hPa Calm     97% 10.67 mm meteobridge W/m2
20:29 10.3 °C 9.8 °C 1010.4 hPa Calm     97% 9.91 mm meteobridge W/m2
20:34 10.3 °C 9.8 °C 1010 hPa Calm     97% 8.89 mm meteobridge W/m2
20:39 10.3 °C 9.8 °C 1010 hPa Calm     97% 8.38 mm meteobridge W/m2
20:43 10.3 °C 9.8 °C 1010 hPa Calm     97% 8.13 mm meteobridge W/m2
20:49 10.3 °C 9.8 °C 1010 hPa Calm     97% 7.62 mm meteobridge W/m2
20:54 10.2 °C 9.7 °C 1010 hPa Calm     97% 7.37 mm meteobridge W/m2
20:59 10.2 °C 9.7 °C 1010 hPa Calm     97% 7.37 mm meteobridge W/m2
21:04 10.2 °C 9.7 °C 1009.7 hPa Calm     97% 7.87 mm meteobridge W/m2
21:09 10.1 °C 9.6 °C 1009.7 hPa Calm     97% 7.87 mm meteobridge W/m2
21:14 10.1 °C 9.6 °C 1009.4 hPa Calm     97% 7.62 mm meteobridge W/m2
21:19 10 °C 9.5 °C 1009.4 hPa Calm     97% 7.62 mm meteobridge W/m2
21:24 10.1 °C 9.8 °C 1009.4 hPa Calm     98% 7.37 mm meteobridge W/m2
21:29 10.1 °C 9.8 °C 1009.4 hPa Calm     98% 7.11 mm meteobridge W/m2
21:34 10.1 °C 9.8 °C 1009 hPa Calm     98% 6.35 mm meteobridge W/m2
21:39 10.2 °C 9.9 °C 1008.7 hPa Calm     98% 5.84 mm meteobridge W/m2
21:44 10.2 °C 9.9 °C 1008.7 hPa Calm     98% 5.84 mm meteobridge W/m2
21:49 10.2 °C 9.9 °C 1008.7 hPa Calm     98% 5.84 mm meteobridge W/m2
21:54 10.2 °C 9.9 °C 1008.4 hPa Calm     98% 5.84 mm meteobridge W/m2
21:59 10.2 °C 9.9 °C 1008.4 hPa Calm     98% 5.84 mm meteobridge W/m2
22:04 10.2 °C 9.9 °C 1008.4 hPa Calm     98% 5.33 mm meteobridge W/m2
22:09 10.2 °C 9.9 °C 1008 hPa Calm     98% 5.33 mm meteobridge W/m2
22:14 10.2 °C 9.9 °C 1008 hPa Calm     98% 5.33 mm meteobridge W/m2
22:19 10.2 °C 9.9 °C 1008.4 hPa Calm     98% 5.08 mm meteobridge W/m2
22:24 10.2 °C 9.9 °C 1008 hPa Calm     98% 5.59 mm meteobridge W/m2
22:29 10.2 °C 9.9 °C 1007.3 hPa Calm     98% 5.33 mm meteobridge W/m2
22:34 10.3 °C 10 °C 1007.3 hPa Calm     98% 5.08 mm meteobridge W/m2
22:39 10.2 °C 9.9 °C 1007.3 hPa Calm     98% 4.83 mm meteobridge W/m2
22:44 10.1 °C 9.6 °C 1007.7 hPa Calm     97% 4.83 mm meteobridge W/m2
22:49 10.1 °C 9.8 °C 1007.3 hPa Calm     98% 4.32 mm meteobridge W/m2
22:54 10.1 °C 9.8 °C 1007.7 hPa Calm     98% 4.06 mm meteobridge W/m2
22:59 10.2 °C 9.9 °C 1007.7 hPa Calm     98% 3.56 mm meteobridge W/m2
23:04 10.3 °C 10 °C 1007.7 hPa Calm     98% 3.3 mm meteobridge W/m2
23:09 10.3 °C 10 °C 1007.7 hPa Calm     98% 3.3 mm meteobridge W/m2
23:14 10.3 °C 10 °C 1007.7 hPa Calm     98% 3.3 mm meteobridge W/m2
23:19 10.3 °C 10 °C 1008 hPa Calm     98% 3.56 mm meteobridge W/m2
23:24 10.3 °C 10 °C 1008 hPa Calm     98% 3.81 mm meteobridge W/m2
23:29 10.3 °C 10 °C 1008.4 hPa Calm     98% 3.56 mm meteobridge W/m2
23:34 10.3 °C 10 °C 1008.4 hPa Calm     98% 3.81 mm meteobridge W/m2
23:39 10.3 °C 10 °C 1008.4 hPa Calm     98% 4.06 mm meteobridge W/m2
23:44 10.3 °C 10 °C 1008.4 hPa Calm     98% 4.06 mm meteobridge W/m2
23:49 10.2 °C 9.9 °C 1008 hPa Calm     98% 4.32 mm meteobridge W/m2
23:54 10.2 °C 9.9 °C 1008 hPa Calm     98% 4.32 mm meteobridge W/m2
23:59 10.2 °C 9.9 °C 1007.7 hPa Calm     98% 4.32 mm meteobridge W/m2
EllijayWeather
Compliments of Weather Underground - 2.5 mb